createdAt,value
2023-02-17T00:00:57.594Z,21.33
2023-02-17T00:03:26.294Z,22.07
2023-02-17T00:05:54.501Z,22.67
2023-02-17T00:08:22.758Z,22.13
2023-02-17T00:10:58.022Z,22.60
2023-02-17T00:13:27.882Z,22.50
2023-02-17T00:15:56.279Z,22.40
2023-02-17T00:18:25.087Z,21.83
2023-02-17T00:20:53.471Z,22.07
2023-02-17T00:23:21.691Z,22.13
2023-02-17T00:25:49.890Z,22.00
2023-02-17T00:28:18.185Z,22.53
2023-02-17T00:30:47.828Z,22.03
2023-02-17T00:33:16.136Z,22.03
2023-02-17T00:35:44.294Z,21.13
2023-02-17T00:38:12.541Z,20.97
2023-02-17T00:40:41.775Z,20.57
2023-02-17T00:43:09.962Z,20.60
2023-02-17T00:45:38.146Z,21.87
2023-02-17T00:48:07.698Z,20.83
2023-02-17T00:50:35.944Z,22.50
2023-02-17T00:53:04.111Z,21.07
2023-02-17T00:55:32.306Z,21.70
2023-02-17T00:58:00.512Z,21.60
2023-02-17T01:00:28.772Z,20.60
2023-02-17T01:02:56.932Z,21.80
2023-02-17T01:05:26.473Z,20.70
2023-02-17T01:07:54.705Z,20.67
2023-02-17T01:10:23.048Z,20.53
2023-02-17T02:08:32.480Z,17.07
2023-02-17T02:11:00.703Z,16.43
2023-02-17T02:13:28.996Z,16.77
2023-02-17T02:16:01.090Z,17.53
2023-02-17T02:18:33.847Z,16.63
2023-02-17T02:21:19.946Z,15.67
2023-02-17T02:24:00.679Z,16.40
2023-02-17T02:26:47.649Z,16.10
2023-02-17T02:29:30.162Z,15.83
2023-02-17T02:32:05.454Z,16.17
2023-02-17T02:34:37.029Z,15.33
2023-02-17T02:37:08.168Z,15.87
2023-02-17T02:39:39.200Z,15.47
2023-02-17T02:42:08.738Z,15.50
2023-02-17T02:44:37.028Z,16.67
2023-02-17T02:47:06.376Z,16.07
2023-02-17T02:49:37.305Z,16.20
2023-02-17T02:52:07.527Z,15.50
2023-02-17T02:54:43.460Z,16.33
2023-02-17T02:57:31.425Z,16.47
2023-02-17T03:00:04.489Z,14.73
2023-02-17T03:02:34.392Z,16.10
2023-02-17T03:05:06.710Z,15.87
2023-02-17T03:07:36.727Z,16.70
2023-02-17T03:10:05.621Z,16.30
2023-02-17T03:12:36.183Z,16.60
2023-02-17T03:15:08.497Z,16.80
2023-02-17T03:17:36.717Z,15.63
2023-02-17T03:20:06.937Z,16.43
2023-02-17T03:22:36.833Z,16.17
2023-02-17T03:25:05.501Z,16.83
2023-02-17T03:27:33.695Z,16.93
2023-02-17T03:30:03.683Z,16.60
2023-02-17T03:32:32.001Z,17.17
2023-02-17T03:35:00.238Z,16.30
2023-02-17T03:37:29.902Z,17.47
2023-02-17T03:39:58.146Z,16.80
2023-02-17T03:42:26.501Z,15.80
2023-02-17T03:44:54.693Z,16.17
2023-02-17T03:47:22.914Z,15.03
2023-02-17T03:49:51.280Z,15.17
2023-02-17T03:52:19.547Z,14.47
2023-02-17T03:54:49.111Z,15.50
2023-02-17T03:57:17.384Z,14.63
2023-02-17T03:59:45.593Z,15.33
2023-02-17T04:02:13.858Z,15.70
2023-02-17T04:04:42.194Z,14.43
2023-02-17T04:07:10.409Z,14.63
2023-02-17T04:09:38.577Z,14.03
2023-02-17T04:12:08.382Z,14.17
2023-02-17T04:14:36.781Z,13.80
2023-02-17T04:17:05.004Z,14.20
2023-02-17T04:19:33.256Z,13.27
2023-02-17T04:22:01.493Z,13.57
2023-02-17T04:24:29.748Z,13.97
2023-02-17T04:26:57.964Z,14.23
2023-02-17T04:29:27.518Z,13.87
2023-02-17T04:31:55.873Z,13.43
2023-02-17T04:34:24.210Z,13.67
2023-02-17T04:36:52.544Z,12.97
2023-02-17T04:39:21.011Z,12.93
2023-02-17T04:41:49.185Z,12.00
2023-02-17T04:44:17.378Z,12.20
2023-02-17T04:46:46.928Z,12.83
2023-02-17T04:49:15.182Z,12.27
2023-02-17T04:51:43.390Z,12.43
2023-02-17T04:54:11.613Z,12.63
2023-02-17T04:56:39.844Z,12.90
2023-02-17T04:59:08.447Z,13.17
2023-02-17T05:01:36.656Z,12.23
2023-02-17T05:04:06.562Z,13.17
2023-02-17T05:06:34.771Z,12.93
2023-02-17T05:09:03.043Z,13.03
2023-02-17T05:11:31.521Z,12.87
2023-02-17T05:13:59.728Z,13.87
2023-02-17T05:16:27.966Z,12.47
2023-02-17T05:18:56.185Z,12.73
2023-02-17T05:21:25.765Z,12.77
2023-02-17T05:23:54.706Z,13.27
2023-02-17T05:26:23.605Z,12.93
2023-02-17T05:28:51.776Z,13.40
2023-02-17T05:31:20.231Z,13.30
2023-02-17T05:33:48.594Z,12.70
2023-02-17T05:36:17.005Z,12.83
2023-02-17T05:38:49.263Z,13.33
2023-02-17T05:41:17.522Z,13.00
2023-02-17T05:43:45.733Z,13.47
2023-02-17T05:46:14.033Z,14.43
2023-02-17T05:48:42.670Z,13.80
2023-02-17T05:51:10.904Z,13.40
2023-02-17T05:53:39.171Z,12.83
2023-02-17T05:56:09.287Z,12.00
2023-02-17T05:58:37.756Z,11.43
2023-02-17T06:01:09.179Z,11.17
2023-02-17T06:03:37.519Z,10.37
2023-02-17T06:06:06.365Z,10.53
2023-02-17T06:08:37.803Z,10.77
2023-02-17T06:11:06.343Z,10.63
2023-02-17T06:13:36.086Z,10.47
2023-02-17T06:16:05.090Z,10.30
2023-02-17T06:18:33.590Z,9.83
2023-02-17T06:21:04.639Z,10.40
2023-02-17T06:23:32.881Z,9.50
2023-02-17T06:26:01.150Z,9.17
2023-02-17T06:28:29.580Z,9.10
2023-02-17T06:30:59.155Z,9.47
2023-02-17T06:33:27.547Z,9.47
2023-02-17T06:35:55.870Z,9.97
2023-02-17T06:38:24.211Z,9.20
2023-02-17T06:40:52.449Z,8.80
2023-02-17T06:43:20.666Z,10.17
2023-02-17T06:45:49.027Z,9.23
2023-02-17T06:48:18.616Z,9.37
2023-02-17T06:50:46.852Z,8.93
2023-02-17T06:53:15.164Z,9.10
2023-02-17T06:55:45.104Z,9.27
2023-02-17T06:58:13.319Z,8.90
2023-02-17T07:00:41.521Z,8.77
2023-02-17T07:03:09.923Z,8.87
2023-02-17T07:05:40.197Z,8.87
2023-02-17T07:08:11.461Z,8.27
2023-02-17T07:10:39.752Z,9.00
2023-02-17T07:13:08.010Z,9.10
2023-02-17T07:15:36.392Z,9.20
2023-02-17T07:18:04.645Z,8.77
2023-02-17T07:20:33.019Z,8.93
2023-02-17T07:23:02.924Z,8.80
2023-02-17T07:25:31.204Z,8.27
2023-02-17T07:27:59.615Z,8.77
2023-02-17T07:30:27.875Z,8.97
2023-02-17T07:32:56.064Z,8.93
2023-02-17T07:35:24.326Z,9.43
2023-02-17T07:37:52.579Z,9.83
2023-02-17T07:40:22.327Z,9.53
2023-02-17T07:42:50.502Z,9.63
2023-02-17T07:45:18.841Z,9.80
2023-02-17T07:47:47.036Z,9.73
2023-02-17T07:50:15.257Z,10.53
2023-02-17T07:52:43.497Z,10.53
2023-02-17T07:55:11.730Z,10.77
2023-02-17T07:57:41.322Z,10.93
2023-02-17T08:00:11.006Z,10.30
2023-02-17T08:02:39.314Z,11.10
2023-02-17T08:05:07.637Z,10.77
2023-02-17T08:07:35.846Z,11.20
2023-02-17T08:10:21.593Z,11.63
2023-02-17T08:13:05.109Z,11.80
2023-02-17T08:15:35.052Z,11.30
2023-02-17T08:18:04.954Z,12.73
2023-02-17T08:20:35.148Z,11.90
2023-02-17T08:23:04.396Z,12.17
2023-02-17T08:25:33.673Z,11.90
2023-02-17T08:28:03.694Z,12.90
2023-02-17T08:30:32.787Z,11.93
2023-02-17T08:33:01.136Z,12.73
2023-02-17T08:35:29.607Z,13.30
2023-02-17T08:37:58.152Z,12.33
2023-02-17T08:40:26.441Z,12.57
2023-02-17T08:42:54.664Z,12.57
2023-02-17T08:45:24.219Z,12.07
2023-02-17T08:47:52.869Z,12.33
2023-02-17T08:50:21.147Z,11.80
2023-02-17T08:52:49.443Z,12.87
2023-02-17T08:55:19.068Z,12.83
2023-02-17T08:57:47.358Z,13.37
2023-02-17T09:00:16.318Z,11.93
2023-02-17T09:02:46.206Z,12.63
2023-02-17T09:05:14.910Z,13.20
2023-02-17T09:07:43.194Z,12.37
2023-02-17T09:10:12.699Z,11.77
2023-02-17T09:12:41.653Z,12.47
2023-02-17T09:15:10.880Z,11.57
2023-02-17T09:17:40.956Z,12.53
2023-02-17T09:20:24.069Z,12.40
2023-02-17T09:22:53.236Z,12.20
2023-02-17T09:25:21.535Z,12.23
2023-02-17T09:27:49.893Z,12.27
2023-02-17T09:30:18.444Z,11.60
2023-02-17T09:32:46.734Z,12.07
2023-02-17T09:35:17.337Z,11.37
2023-02-17T09:37:45.645Z,11.53
2023-02-17T09:40:17.486Z,12.60
2023-02-17T09:42:45.835Z,11.57
2023-02-17T09:45:16.194Z,11.07
2023-02-17T09:47:46.948Z,11.50
2023-02-17T09:50:18.944Z,10.77
2023-02-17T09:52:52.496Z,11.17
2023-02-17T09:55:24.129Z,11.20
2023-02-17T09:57:55.692Z,9.93
2023-02-17T10:00:31.001Z,11.00
2023-02-17T10:03:01.484Z,10.97
2023-02-17T10:05:36.707Z,11.27
2023-02-17T10:08:08.216Z,11.27
2023-02-17T10:10:39.969Z,10.63
2023-02-17T10:13:09.391Z,10.80
2023-02-17T10:15:41.756Z,10.83
2023-02-17T10:18:13.324Z,10.10
2023-02-17T10:20:43.909Z,9.97
2023-02-17T10:23:14.422Z,10.37
2023-02-17T10:25:52.428Z,10.53
2023-02-17T10:28:37.533Z,10.27
2023-02-17T10:31:07.321Z,10.47
2023-02-17T10:33:37.642Z,9.83
2023-02-17T10:36:12.658Z,10.13
2023-02-17T10:38:45.610Z,10.00
2023-02-17T10:41:15.360Z,9.27
2023-02-17T10:43:44.758Z,9.33
2023-02-17T10:46:14.453Z,9.73
2023-02-17T10:48:45.779Z,8.90
2023-02-17T10:51:17.990Z,9.70
2023-02-17T10:53:47.566Z,9.33
2023-02-17T10:56:18.366Z,8.97
2023-02-17T10:58:50.723Z,8.70
2023-02-17T11:01:19.008Z,9.10
2023-02-17T11:03:51.711Z,9.20
2023-02-17T11:06:26.586Z,9.27
2023-02-17T11:09:05.576Z,9.60
2023-02-17T11:11:34.498Z,9.47
2023-02-17T11:14:12.585Z,8.43
2023-02-17T11:16:42.848Z,9.10
2023-02-17T11:19:22.625Z,9.50
2023-02-17T11:21:53.739Z,9.33
2023-02-17T11:24:22.048Z,8.83
2023-02-17T11:26:57.398Z,8.77
2023-02-17T11:29:26.026Z,9.30
2023-02-17T11:31:58.452Z,9.47
2023-02-17T11:34:28.293Z,8.83
2023-02-17T11:37:02.671Z,9.80
2023-02-17T11:39:31.077Z,9.33
2023-02-17T11:41:59.398Z,9.13
2023-02-17T11:44:28.606Z,9.07
2023-02-17T11:47:05.609Z,9.23
2023-02-17T11:49:39.451Z,9.60
2023-02-17T11:52:14.112Z,9.47
2023-02-17T11:54:49.526Z,9.27
2023-02-17T11:57:24.240Z,8.83
2023-02-17T11:59:59.473Z,10.00
2023-02-17T12:02:34.639Z,9.07
2023-02-17T12:05:09.318Z,10.17
2023-02-17T12:07:54.875Z,10.07
2023-02-17T12:10:27.674Z,9.20
2023-02-17T12:13:00.029Z,9.10
2023-02-17T12:15:36.547Z,9.27
2023-02-17T12:18:10.009Z,9.03
2023-02-17T12:20:45.586Z,8.80
2023-02-17T12:23:28.718Z,9.10
2023-02-17T12:26:01.448Z,8.47
2023-02-17T12:28:37.947Z,8.87
2023-02-17T12:31:12.690Z,8.50
2023-02-17T12:33:47.821Z,8.83
2023-02-17T12:36:17.194Z,9.03
2023-02-17T12:38:47.797Z,9.23
2023-02-17T12:41:20.040Z,8.80
2023-02-17T12:43:51.265Z,8.80
2023-02-17T12:46:22.602Z,8.40
2023-02-17T12:48:54.656Z,8.00
2023-02-17T12:51:24.569Z,8.27
2023-02-17T12:53:54.639Z,8.00
2023-02-17T12:56:41.592Z,7.77
2023-02-17T12:59:15.846Z,6.70
2023-02-17T13:01:50.675Z,6.73
2023-02-17T13:04:20.353Z,7.53
2023-02-17T13:06:50.818Z,6.80
2023-02-17T13:09:23.666Z,6.83
2023-02-17T13:11:52.190Z,7.20
2023-02-17T13:14:28.524Z,7.13
2023-02-17T13:16:56.992Z,6.73
2023-02-17T13:19:31.798Z,6.37
2023-02-17T13:22:02.192Z,7.20
2023-02-17T13:24:34.828Z,6.90
2023-02-17T13:27:12.860Z,6.90
2023-02-17T13:29:42.443Z,6.43
2023-02-17T13:32:13.291Z,6.80
2023-02-17T13:34:43.381Z,6.87
2023-02-17T13:37:20.282Z,7.20
2023-02-17T13:39:48.505Z,7.23
2023-02-17T13:42:44.157Z,6.87
2023-02-17T13:45:19.739Z,7.53
2023-02-17T13:47:48.578Z,7.03
2023-02-17T13:50:30.990Z,6.80
2023-02-17T13:52:59.606Z,6.77
2023-02-17T13:55:27.895Z,6.33
2023-02-17T13:57:56.745Z,6.43
2023-02-17T14:00:27.480Z,5.93
2023-02-17T14:02:56.694Z,6.37
2023-02-17T14:05:28.647Z,7.07
2023-02-17T14:07:59.546Z,6.73
2023-02-17T14:10:28.478Z,6.30
2023-02-17T14:12:56.813Z,6.23
2023-02-17T14:15:27.318Z,6.67
2023-02-17T14:17:55.917Z,6.13
2023-02-17T14:20:28.340Z,6.20
2023-02-17T14:23:07.294Z,6.10
2023-02-17T14:25:36.520Z,6.43
2023-02-17T14:28:05.429Z,5.63
2023-02-17T14:30:37.613Z,6.03
2023-02-17T14:33:07.344Z,6.10
2023-02-17T14:35:37.780Z,6.27
2023-02-17T14:38:09.911Z,5.43
2023-02-17T14:40:40.070Z,5.77
2023-02-17T14:43:08.488Z,5.60
2023-02-17T14:45:38.039Z,5.10
2023-02-17T14:48:06.384Z,5.20
2023-02-17T14:50:34.926Z,4.90
2023-02-17T14:53:03.142Z,5.47
2023-02-17T14:55:33.787Z,5.73
2023-02-17T14:58:02.210Z,5.30
2023-02-17T15:00:30.489Z,5.40
2023-02-17T15:03:00.103Z,5.83
2023-02-17T15:05:28.353Z,5.93
2023-02-17T15:07:56.630Z,5.73
2023-02-17T15:10:27.532Z,6.00
2023-02-17T15:12:55.767Z,5.77
2023-02-17T15:15:24.324Z,6.20
2023-02-17T15:17:52.553Z,6.03
2023-02-17T15:20:22.087Z,6.03
2023-02-17T15:22:52.762Z,6.57
2023-02-17T15:25:22.995Z,6.60
2023-02-17T15:27:52.646Z,6.20
2023-02-17T15:30:22.853Z,6.23
2023-02-17T15:32:51.205Z,5.97
2023-02-17T15:35:20.668Z,6.80
2023-02-17T15:37:50.588Z,6.43
2023-02-17T15:40:19.793Z,6.50
2023-02-17T15:42:48.897Z,7.20
2023-02-17T15:45:20.269Z,7.30
2023-02-17T15:47:48.962Z,7.53
2023-02-17T15:50:20.446Z,6.40
2023-02-17T15:52:50.850Z,6.40
2023-02-17T15:55:19.974Z,6.63
2023-02-17T15:57:49.456Z,6.13
2023-02-17T16:00:19.568Z,6.80
2023-02-17T16:02:47.916Z,7.50
2023-02-17T16:05:17.458Z,9.13
2023-02-17T16:07:45.917Z,6.60
2023-02-17T16:10:17.696Z,5.97
2023-02-17T16:12:46.201Z,6.27
2023-02-17T16:15:16.000Z,6.10
2023-02-17T16:17:44.285Z,6.70
2023-02-17T16:20:15.730Z,6.20
2023-02-17T16:22:43.956Z,6.67
2023-02-17T16:25:12.301Z,6.23
2023-02-17T16:27:42.768Z,6.50
2023-02-17T16:30:21.187Z,6.20
2023-02-17T16:32:49.793Z,7.00
2023-02-17T16:35:18.875Z,6.67
2023-02-17T16:37:58.563Z,6.10
2023-02-17T16:40:27.716Z,6.40
2023-02-17T16:42:57.735Z,6.03
2023-02-17T16:45:26.636Z,6.10
2023-02-17T16:47:56.982Z,5.93
2023-02-17T16:50:26.040Z,5.47
2023-02-17T16:52:54.831Z,5.20
2023-02-17T16:55:23.846Z,5.47
2023-02-17T16:57:52.515Z,5.40
2023-02-17T17:00:23.925Z,5.20
2023-02-17T17:02:52.227Z,5.40
2023-02-17T17:05:21.016Z,5.20
2023-02-17T17:07:51.155Z,5.40
2023-02-17T17:10:20.259Z,5.60
2023-02-17T17:12:48.527Z,5.53
2023-02-17T17:15:20.335Z,5.90
2023-02-17T17:17:52.627Z,5.03
2023-02-17T17:20:23.869Z,5.20
2023-02-17T17:22:55.391Z,5.30
2023-02-17T17:25:23.955Z,5.40
2023-02-17T17:27:52.364Z,5.77
2023-02-17T17:30:21.840Z,5.30
2023-02-17T17:32:51.687Z,6.27
2023-02-17T17:35:20.452Z,5.50
2023-02-17T17:37:48.738Z,6.43
2023-02-17T17:40:19.117Z,6.37
2023-02-17T17:42:47.475Z,5.60
2023-02-17T17:45:16.138Z,6.47
2023-02-17T17:47:45.671Z,6.90
2023-02-17T17:50:18.960Z,6.70
2023-02-17T17:52:57.213Z,6.60
2023-02-17T17:55:25.479Z,6.47
2023-02-17T17:57:54.256Z,6.87
2023-02-17T18:00:27.519Z,6.70
2023-02-17T18:02:56.003Z,6.43
2023-02-17T18:05:25.665Z,6.60
2023-02-17T18:07:53.998Z,7.13
2023-02-17T18:10:22.395Z,7.80
2023-02-17T18:12:50.857Z,6.80
2023-02-17T18:15:19.581Z,7.70
2023-02-17T18:17:48.328Z,8.10
2023-02-17T18:20:16.735Z,8.80
2023-02-17T18:22:46.379Z,8.90
2023-02-17T18:25:14.620Z,9.73
2023-02-17T18:27:43.378Z,8.90
2023-02-17T18:30:14.232Z,8.47
2023-02-17T18:32:44.164Z,8.80
2023-02-17T18:35:13.241Z,8.40
2023-02-17T18:37:42.046Z,7.37
2023-02-17T18:40:13.203Z,8.50
2023-02-17T18:42:41.569Z,8.97
2023-02-17T18:45:10.951Z,8.90
2023-02-17T18:47:39.309Z,8.67
2023-02-17T18:50:08.189Z,8.53
2023-02-17T18:52:37.997Z,9.23
2023-02-17T18:55:06.452Z,8.83
2023-02-17T18:57:36.217Z,8.50
2023-02-17T19:00:04.647Z,8.27
2023-02-17T19:02:32.981Z,6.80
2023-02-17T19:05:01.204Z,6.80
2023-02-17T19:07:29.629Z,6.33
2023-02-17T19:09:57.896Z,5.50
2023-02-17T19:12:26.673Z,5.90
2023-02-17T19:14:56.904Z,4.70
2023-02-17T19:17:25.819Z,3.67
2023-02-17T19:19:54.566Z,3.40
2023-02-17T19:22:22.801Z,3.40
2023-02-17T19:24:52.916Z,3.03
2023-02-17T19:27:21.157Z,2.70
2023-02-17T19:29:49.443Z,2.80
2023-02-17T19:32:19.209Z,3.23
2023-02-17T19:34:47.450Z,2.43
2023-02-17T19:37:15.660Z,2.50
2023-02-17T19:39:43.884Z,2.53
2023-02-17T19:42:12.194Z,2.80
2023-02-17T19:44:40.434Z,2.90
2023-02-17T19:47:08.697Z,3.03
2023-02-17T19:49:38.372Z,2.70
2023-02-17T19:52:07.449Z,3.10
2023-02-17T19:54:35.809Z,3.40
2023-02-17T19:57:04.273Z,3.00
2023-02-17T19:59:33.434Z,5.23
2023-02-17T20:02:01.847Z,3.00
2023-02-17T20:04:30.127Z,2.40
2023-02-17T20:06:59.702Z,8.60
2023-02-17T20:09:27.964Z,3.37
2023-02-17T20:11:56.258Z,3.33
2023-02-17T20:14:24.431Z,3.97
2023-02-17T20:16:55.513Z,3.47
2023-02-17T20:19:23.781Z,3.77
2023-02-17T20:21:52.047Z,3.60
2023-02-17T20:24:21.716Z,4.10
2023-02-17T20:26:53.573Z,3.20
2023-02-17T20:29:21.841Z,3.13
2023-02-17T20:31:50.290Z,3.57
2023-02-17T20:34:28.673Z,3.83
2023-02-17T20:36:56.947Z,2.93
2023-02-17T20:39:26.900Z,3.60
2023-02-17T20:41:55.157Z,3.70
2023-02-17T20:44:27.803Z,3.90
2023-02-17T20:46:56.639Z,3.00
2023-02-17T20:49:25.206Z,3.37
2023-02-17T20:51:53.702Z,3.60
2023-02-17T20:54:24.651Z,3.10
2023-02-17T20:56:55.707Z,20.13
2023-02-17T20:59:24.074Z,3.10
2023-02-17T21:01:52.316Z,3.40
2023-02-17T21:04:20.499Z,3.87
2023-02-17T21:06:50.365Z,3.83
2023-02-17T21:09:19.485Z,3.70
2023-02-17T21:11:49.311Z,3.30
2023-02-17T21:14:18.937Z,3.30
2023-02-17T21:16:47.500Z,3.20
2023-02-17T21:19:15.786Z,3.90
2023-02-17T21:21:44.002Z,3.73
2023-02-17T21:24:12.571Z,3.60
2023-02-17T21:26:41.009Z,4.17
2023-02-17T21:29:09.236Z,4.20
2023-02-17T21:31:39.098Z,7.00
2023-02-17T21:34:08.822Z,5.17
2023-02-17T21:36:37.065Z,4.63
2023-02-17T21:39:05.358Z,5.80
2023-02-17T21:41:33.624Z,7.97
2023-02-17T21:44:19.487Z,10.80
2023-02-17T21:46:49.073Z,10.13
2023-02-17T21:49:17.372Z,11.30
2023-02-17T21:51:45.632Z,10.30
2023-02-17T21:54:13.834Z,10.43
2023-02-17T21:56:42.086Z,11.97
2023-02-17T21:59:10.466Z,10.93
2023-02-17T22:01:38.798Z,11.53
2023-02-17T22:04:08.577Z,12.97
2023-02-17T22:06:37.657Z,14.00
2023-02-17T22:09:07.281Z,14.70
2023-02-17T22:11:36.988Z,14.93
2023-02-17T22:14:06.109Z,15.30
2023-02-17T22:16:35.282Z,16.13
2023-02-17T22:19:04.067Z,15.33
2023-02-17T22:21:33.684Z,16.07
2023-02-17T22:24:02.617Z,16.57
2023-02-17T22:26:31.098Z,15.80
2023-02-17T22:28:59.378Z,17.13
2023-02-17T22:31:29.008Z,16.37
2023-02-17T22:33:57.886Z,17.37
2023-02-17T22:36:27.396Z,16.33
2023-02-17T22:38:57.044Z,17.77
2023-02-17T22:41:26.206Z,16.33
2023-02-17T22:43:54.951Z,17.20
2023-02-17T22:46:24.147Z,17.17
2023-02-17T22:48:53.017Z,18.33
2023-02-17T22:51:22.577Z,16.13
2023-02-17T22:53:51.388Z,16.93
2023-02-17T22:56:21.002Z,17.37
2023-02-17T22:58:53.682Z,17.37
2023-02-17T23:01:21.973Z,18.27
2023-02-17T23:03:52.916Z,16.93
2023-02-17T23:06:22.782Z,17.67
2023-02-17T23:08:51.074Z,17.73
2023-02-17T23:11:42.361Z,18.67
2023-02-17T23:14:11.090Z,18.73
2023-02-17T23:16:39.517Z,17.73
2023-02-17T23:19:09.871Z,18.50
2023-02-17T23:21:38.525Z,18.77
2023-02-17T23:24:06.948Z,19.27
2023-02-17T23:26:36.611Z,20.53
2023-02-17T23:29:05.383Z,19.67
2023-02-17T23:31:34.717Z,19.27
2023-02-17T23:34:03.054Z,20.37
2023-02-17T23:36:31.557Z,19.30
2023-02-17T23:38:59.939Z,20.37
2023-02-17T23:41:28.236Z,19.53
2023-02-17T23:43:57.873Z,20.10
2023-02-17T23:46:26.101Z,19.63
2023-02-17T23:48:54.361Z,20.67
2023-02-17T23:51:22.680Z,20.50
2023-02-17T23:53:50.904Z,21.03
2023-02-17T23:56:22.234Z,20.47
2023-02-17T23:58:50.638Z,20.97
